PWSweather.com
Personal Weather Stations
Station Observations
ISANTACA4
Capoeiras Weather Station, Florianopolis, SC 88070450

Capoeiras Weather StationFlorianopolis, SC 88070450

Lat: -27.596, Lon: -48.588

Elevation: 133

Station Type: Oregon WMR 928NX

Latest ConditionsUpdated 4:45:00 PM GMT-03:57 Tuesday, Oct 21, 2014
Currently Today's Max Today's Min Today's Average
Temperature 70.2°F21.2°C 74.8°F23.8°C 62.8°F17.1°C 68.3°F20.2°C
Dew Point 58.7°F14.8°C 62.7°F17.1°C 55.5°F13.1°C 58.4°F14.7°C
Winds 4.0 mph E6.4 kmh E 7.0 mph SW11.3 kmh SW - 3.7 mph 6.0 kmh
Wind Gusts 10.0 mph16.1 kmh 17.0 mph27.4 kmh - -
Humidity 67% 80% 63% 71%
Pressure 30.18 in1022.0 mb 30.25 in1024.4 mb 30.14 in1020.7 mb -
Hour Temp Dew Point Humidity Winds Wind Gusts Pressure Precip Precip Rate Daily Precip Total
04:45 PM 70.2°F21.2°C 58.7°F14.8°C 67% 4.0 mph E6.4 kmh E 10.0 mph16.1 kmh 30.18 in1022.0 mb 0.00 in0.0 mm 0.00 in/hr0.0 mm/hr 0.00 in0.0 mm
04:30 PM 70.5°F21.4°C 58.2°F14.6°C 65% 4.0 mph E6.4 kmh E 10.0 mph16.1 kmh 30.19 in1022.4 mb 0.00 in0.0 mm 0.00 in/hr0.0 mm/hr 0.00 in0.0 mm
04:15 PM 70.9°F21.6°C 59.0°F15.0°C 66% 3.0 mph ESE4.8 kmh ESE 6.0 mph9.7 kmh 30.19 in1022.4 mb 0.00 in0.0 mm 0.00 in/hr0.0 mm/hr 0.00 in0.0 mm
04:00 PM 70.9°F21.6°C 59.0°F15.0°C 66% 3.0 mph ESE4.8 kmh ESE 9.0 mph14.5 kmh 30.18 in1022.0 mb 0.00 in0.0 mm 0.00 in/hr0.0 mm/hr 0.00 in0.0 mm
03:45 PM 71.4°F21.9°C 59.0°F15.0°C 65% 4.0 mph E6.4 kmh E 7.0 mph11.3 kmh 30.18 in1022.0 mb 0.00 in0.0 mm 0.00 in/hr0.0 mm/hr 0.00 in0.0 mm
03:30 PM 71.6°F22.0°C 58.8°F14.9°C 64% 4.0 mph E6.4 kmh E 8.0 mph12.9 kmh 30.18 in1022.0 mb 0.00 in0.0 mm 0.00 in/hr0.0 mm/hr 0.00 in0.0 mm
03:15 PM 71.6°F22.0°C 59.2°F15.1°C 65% 4.0 mph E6.4 kmh E 8.0 mph12.9 kmh 30.18 in1022.0 mb 0.00 in0.0 mm 0.00 in/hr0.0 mm/hr 0.00 in0.0 mm
03:00 PM 71.8°F22.1°C 59.4°F15.2°C 65% 4.0 mph E6.4 kmh E 11.0 mph17.7 kmh 30.18 in1022.0 mb 0.00 in0.0 mm 0.00 in/hr0.0 mm/hr 0.00 in0.0 mm
02:45 PM 71.6°F22.0°C 59.2°F15.1°C 65% 4.0 mph ESE6.4 kmh ESE 10.0 mph16.1 kmh 30.18 in1022.0 mb 0.00 in0.0 mm 0.00 in/hr0.0 mm/hr 0.00 in0.0 mm
02:30 PM 72.0°F22.2°C 59.6°F15.3°C 65% 3.0 mph ESE4.8 kmh ESE 6.0 mph9.7 kmh 30.19 in1022.4 mb 0.00 in0.0 mm 0.00 in/hr0.0 mm/hr 0.00 in0.0 mm
02:15 PM 71.4°F21.9°C 59.0°F15.0°C 65% 4.0 mph ESE6.4 kmh ESE 9.0 mph14.5 kmh 30.20 in1022.7 mb 0.00 in0.0 mm 0.00 in/hr0.0 mm/hr 0.00 in0.0 mm
02:00 PM 71.8°F22.1°C 59.4°F15.2°C 65% 2.0 mph ESE3.2 kmh ESE 8.0 mph12.9 kmh 30.20 in1022.7 mb 0.00 in0.0 mm 0.00 in/hr0.0 mm/hr 0.00 in0.0 mm
01:45 PM 71.4°F21.9°C 59.0°F15.0°C 65% 4.0 mph ESE6.4 kmh ESE 7.0 mph11.3 kmh 30.20 in1022.7 mb 0.00 in0.0 mm 0.00 in/hr0.0 mm/hr 0.00 in0.0 mm
01:30 PM 71.8°F22.1°C 59.8°F15.4°C 66% 4.0 mph ESE6.4 kmh ESE 9.0 mph14.5 kmh 30.20 in1022.7 mb 0.00 in0.0 mm 0.00 in/hr0.0 mm/hr 0.00 in0.0 mm
01:15 PM 72.3°F22.4°C 60.7°F15.9°C 67% 3.0 mph E4.8 kmh E 5.0 mph8.0 kmh 30.21 in1023.0 mb 0.00 in0.0 mm 0.00 in/hr0.0 mm/hr 0.00 in0.0 mm
01:00 PM 72.7°F22.6°C 61.1°F16.2°C 67% 3.0 mph E4.8 kmh E 8.0 mph12.9 kmh 30.21 in1023.0 mb 0.00 in0.0 mm 0.00 in/hr0.0 mm/hr 0.00 in0.0 mm
12:45 PM 72.5°F22.5°C 60.5°F15.8°C 66% 4.0 mph ESE6.4 kmh ESE 8.0 mph12.9 kmh 30.21 in1023.0 mb 0.00 in0.0 mm 0.00 in/hr0.0 mm/hr 0.00 in0.0 mm
12:30 PM 73.8°F23.2°C 60.4°F15.8°C 63% 4.0 mph ESE6.4 kmh ESE 10.0 mph16.1 kmh 30.22 in1023.4 mb 0.00 in0.0 mm 0.00 in/hr0.0 mm/hr 0.00 in0.0 mm
12:15 PM 73.0°F22.8°C 60.1°F15.6°C 64% 6.0 mph ESE9.7 kmh ESE 12.0 mph19.3 kmh 30.23 in1023.7 mb 0.00 in0.0 mm 0.00 in/hr0.0 mm/hr 0.00 in0.0 mm
12:00 PM 72.7°F22.6°C 60.2°F15.7°C 65% 6.0 mph ESE9.7 kmh ESE 12.0 mph19.3 kmh 30.23 in1023.7 mb 0.00 in0.0 mm 0.00 in/hr0.0 mm/hr 0.00 in0.0 mm
11:45 AM 73.2°F22.9°C 60.7°F15.9°C 65% 6.0 mph SE9.7 kmh SE 14.0 mph22.5 kmh 30.24 in1024.0 mb 0.00 in0.0 mm 0.00 in/hr0.0 mm/hr 0.00 in0.0 mm
11:30 AM 73.6°F23.1°C 61.1°F16.2°C 65% 4.0 mph SE6.4 kmh SE 11.0 mph17.7 kmh 30.25 in1024.4 mb 0.00 in0.0 mm 0.00 in/hr0.0 mm/hr 0.00 in0.0 mm
11:15 AM 74.8°F23.8°C 62.7°F17.1°C 66% 4.0 mph S6.4 kmh S 14.0 mph22.5 kmh 30.25 in1024.4 mb 0.00 in0.0 mm 0.00 in/hr0.0 mm/hr 0.00 in0.0 mm
11:00 AM 73.9°F23.3°C 62.3°F16.8°C 67% 4.0 mph SSW6.4 kmh SSW 9.0 mph14.5 kmh 30.25 in1024.4 mb 0.00 in0.0 mm 0.00 in/hr0.0 mm/hr 0.00 in0.0 mm
10:45 AM 73.8°F23.2°C 61.7°F16.5°C 66% 4.0 mph SSW6.4 kmh SSW 10.0 mph16.1 kmh 30.25 in1024.4 mb 0.00 in0.0 mm 0.00 in/hr0.0 mm/hr 0.00 in0.0 mm
10:30 AM 73.9°F23.3°C 61.4°F16.3°C 65% 3.0 mph S4.8 kmh S 9.0 mph14.5 kmh 30.25 in1024.4 mb 0.00 in0.0 mm 0.00 in/hr0.0 mm/hr 0.00 in0.0 mm
10:15 AM 72.7°F22.6°C 61.9°F16.6°C 69% 4.0 mph SE6.4 kmh SE 11.0 mph17.7 kmh 30.25 in1024.4 mb 0.00 in0.0 mm 0.00 in/hr0.0 mm/hr 0.00 in0.0 mm
10:00 AM 72.9°F22.7°C 60.4°F15.8°C 65% 3.0 mph SE4.8 kmh SE 11.0 mph17.7 kmh 30.25 in1024.4 mb 0.00 in0.0 mm 0.00 in/hr0.0 mm/hr 0.00 in0.0 mm
09:45 AM 72.3°F22.4°C 61.2°F16.2°C 68% 3.0 mph SSW4.8 kmh SSW 7.0 mph11.3 kmh 30.25 in1024.4 mb 0.00 in0.0 mm 0.00 in/hr0.0 mm/hr 0.00 in0.0 mm
09:30 AM 71.4°F21.9°C 59.5°F15.3°C 66% 3.0 mph SSW4.8 kmh SSW 8.0 mph12.9 kmh 30.25 in1024.4 mb 0.00 in0.0 mm 0.00 in/hr0.0 mm/hr 0.00 in0.0 mm
09:00 AM 69.1°F20.6°C 57.7°F14.3°C 67% 3.0 mph SW4.8 kmh SW 10.0 mph16.1 kmh 30.24 in1024.0 mb 0.00 in0.0 mm 0.00 in/hr0.0 mm/hr 0.00 in0.0 mm
08:45 AM 68.4°F20.2°C 56.6°F13.7°C 66% 3.0 mph SW4.8 kmh SW 8.0 mph12.9 kmh 30.24 in1024.0 mb 0.00 in0.0 mm 0.00 in/hr0.0 mm/hr 0.00 in0.0 mm
08:30 AM 68.0°F20.0°C 57.0°F13.9°C 68% 3.0 mph SW4.8 kmh SW 6.0 mph9.7 kmh 30.24 in1024.0 mb 0.00 in0.0 mm 0.00 in/hr0.0 mm/hr 0.00 in0.0 mm
08:15 AM 67.5°F19.7°C 57.3°F14.1°C 70% 2.0 mph WSW3.2 kmh WSW 5.0 mph8.0 kmh 30.24 in1024.0 mb 0.00 in0.0 mm 0.00 in/hr0.0 mm/hr 0.00 in0.0 mm
08:00 AM 66.0°F18.9°C 57.9°F14.4°C 75% 3.0 mph WSW4.8 kmh WSW 5.0 mph8.0 kmh 30.23 in1023.7 mb 0.00 in0.0 mm 0.00 in/hr0.0 mm/hr 0.00 in0.0 mm
07:45 AM 65.8°F18.8°C 58.1°F14.5°C 76% 4.0 mph WSW6.4 kmh WSW 7.0 mph11.3 kmh 30.23 in1023.7 mb 0.00 in0.0 mm 0.00 in/hr0.0 mm/hr 0.00 in0.0 mm
07:30 AM 65.7°F18.7°C 57.1°F13.9°C 74% 3.0 mph WSW4.8 kmh WSW 5.0 mph8.0 kmh 30.22 in1023.4 mb 0.00 in0.0 mm 0.00 in/hr0.0 mm/hr 0.00 in0.0 mm
07:15 AM 65.1°F18.4°C 57.0°F13.9°C 75% 3.0 mph WSW4.8 kmh WSW 5.0 mph8.0 kmh 30.21 in1023.0 mb 0.00 in0.0 mm 0.00 in/hr0.0 mm/hr 0.00 in0.0 mm
07:00 AM 64.4°F18.0°C 56.7°F13.7°C 76% 1.0 mph WSW1.6 kmh WSW 4.0 mph6.4 kmh 30.21 in1023.0 mb 0.00 in0.0 mm 0.00 in/hr0.0 mm/hr 0.00 in0.0 mm
06:45 AM 63.7°F17.6°C 56.7°F13.7°C 78% 1.0 mph WSW1.6 kmh WSW 4.0 mph6.4 kmh 30.20 in1022.7 mb 0.00 in0.0 mm 0.00 in/hr0.0 mm/hr 0.00 in0.0 mm
06:30 AM 63.3°F17.4°C 56.7°F13.7°C 79% 2.0 mph WSW3.2 kmh WSW 4.0 mph6.4 kmh 30.20 in1022.7 mb 0.00 in0.0 mm 0.00 in/hr0.0 mm/hr 0.00 in0.0 mm
06:15 AM 63.1°F17.3°C 56.2°F13.4°C 78% 3.0 mph WSW4.8 kmh WSW 5.0 mph8.0 kmh 30.19 in1022.4 mb 0.00 in0.0 mm 0.00 in/hr0.0 mm/hr 0.00 in0.0 mm
06:00 AM 63.0°F17.2°C 56.7°F13.7°C 80% 1.0 mph WSW1.6 kmh WSW 5.0 mph8.0 kmh 30.19 in1022.4 mb 0.00 in0.0 mm 0.00 in/hr0.0 mm/hr 0.00 in0.0 mm
05:45 AM 62.8°F17.1°C 56.2°F13.4°C 79% Calm Calm -- 30.19 in1022.4 mb 0.00 in0.0 mm 0.00 in/hr0.0 mm/hr 0.00 in0.0 mm
05:30 AM 63.0°F17.2°C 56.0°F13.3°C 78% Calm Calm -- 30.18 in1022.0 mb 0.00 in0.0 mm 0.00 in/hr0.0 mm/hr 0.00 in0.0 mm
05:15 AM 63.1°F17.3°C 55.8°F13.2°C 77% Calm Calm -- 30.17 in1021.7 mb 0.00 in0.0 mm 0.00 in/hr0.0 mm/hr 0.00 in0.0 mm
05:00 AM 63.7°F17.6°C 56.0°F13.3°C 76% 2.0 mph WSW3.2 kmh WSW 2.0 mph3.2 kmh 30.17 in1021.7 mb 0.00 in0.0 mm 0.00 in/hr0.0 mm/hr 0.00 in0.0 mm
04:45 AM 63.9°F17.7°C 56.1°F13.4°C 76% 2.0 mph WSW3.2 kmh WSW 4.0 mph6.4 kmh 30.16 in1021.3 mb 0.00 in0.0 mm 0.00 in/hr0.0 mm/hr 0.00 in0.0 mm
04:30 AM 64.0°F17.8°C 55.6°F13.1°C 74% 1.0 mph WSW1.6 kmh WSW 4.0 mph6.4 kmh 30.16 in1021.3 mb 0.00 in0.0 mm 0.00 in/hr0.0 mm/hr 0.00 in0.0 mm
04:15 AM 64.6°F18.1°C 55.7°F13.2°C 73% 3.0 mph WSW4.8 kmh WSW 5.0 mph8.0 kmh 30.16 in1021.3 mb 0.00 in0.0 mm 0.00 in/hr0.0 mm/hr 0.00 in0.0 mm
04:00 AM 64.8°F18.2°C 55.5°F13.1°C 72% 3.0 mph WSW4.8 kmh WSW 4.0 mph6.4 kmh 30.16 in1021.3 mb 0.00 in0.0 mm 0.00 in/hr0.0 mm/hr 0.00 in0.0 mm
03:45 AM 64.9°F18.3°C 56.5°F13.6°C 74% 4.0 mph SW6.4 kmh SW 10.0 mph16.1 kmh 30.15 in1021.0 mb 0.00 in0.0 mm 0.00 in/hr0.0 mm/hr 0.00 in0.0 mm
03:30 AM 64.8°F18.2°C 57.0°F13.9°C 76% 6.0 mph SW9.7 kmh SW 11.0 mph17.7 kmh 30.15 in1021.0 mb 0.00 in0.0 mm 0.00 in/hr0.0 mm/hr 0.00 in0.0 mm
03:15 AM 64.8°F18.2°C 57.4°F14.1°C 77% 5.0 mph SSW8.0 kmh SSW 12.0 mph19.3 kmh 30.15 in1021.0 mb 0.00 in0.0 mm 0.00 in/hr0.0 mm/hr 0.00 in0.0 mm
03:00 AM 64.9°F18.3°C 57.6°F14.2°C 77% 4.0 mph SSW6.4 kmh SSW 17.0 mph27.4 kmh 30.14 in1020.7 mb 0.00 in0.0 mm 0.00 in/hr0.0 mm/hr 0.00 in0.0 mm
02:45 AM 65.1°F18.4°C 57.4°F14.1°C 76% 6.0 mph SSW9.7 kmh SSW 10.0 mph16.1 kmh 30.15 in1021.0 mb 0.00 in0.0 mm 0.00 in/hr0.0 mm/hr 0.00 in0.0 mm
02:30 AM 65.3°F18.5°C 57.5°F14.2°C 76% 7.0 mph SW11.3 kmh SW 12.0 mph19.3 kmh 30.15 in1021.0 mb 0.00 in0.0 mm 0.00 in/hr0.0 mm/hr 0.00 in0.0 mm
02:15 AM 65.5°F18.6°C 57.7°F14.3°C 76% 6.0 mph SW9.7 kmh SW 11.0 mph17.7 kmh 30.15 in1021.0 mb 0.00 in0.0 mm 0.00 in/hr0.0 mm/hr 0.00 in0.0 mm
02:00 AM 65.5°F18.6°C 57.7°F14.3°C 76% 6.0 mph SSW9.7 kmh SSW 15.0 mph24.1 kmh 30.16 in1021.3 mb 0.00 in0.0 mm 0.00 in/hr0.0 mm/hr 0.00 in0.0 mm
01:45 AM 65.7°F18.7°C 57.9°F14.4°C 76% 7.0 mph SSW11.3 kmh SSW 13.0 mph20.9 kmh 30.16 in1021.3 mb 0.00 in0.0 mm 0.00 in/hr0.0 mm/hr 0.00 in0.0 mm
01:30 AM 65.7°F18.7°C 57.9°F14.4°C 76% 6.0 mph SSW9.7 kmh SSW 12.0 mph19.3 kmh 30.16 in1021.3 mb 0.00 in0.0 mm 0.00 in/hr0.0 mm/hr 0.00 in0.0 mm
01:15 AM 65.7°F18.7°C 57.5°F14.2°C 75% 5.0 mph SSW8.0 kmh SSW 11.0 mph17.7 kmh 30.16 in1021.3 mb 0.00 in0.0 mm 0.00 in/hr0.0 mm/hr 0.00 in0.0 mm
01:00 AM 65.7°F18.7°C 57.5°F14.2°C 75% 6.0 mph SSW9.7 kmh SSW 15.0 mph24.1 kmh 30.17 in1021.7 mb 0.00 in0.0 mm 0.00 in/hr0.0 mm/hr 0.00 in0.0 mm
12:45 AM 65.7°F18.7°C 57.9°F14.4°C 76% 6.0 mph SSW9.7 kmh SSW 13.0 mph20.9 kmh 30.17 in1021.7 mb 0.00 in0.0 mm 0.00 in/hr0.0 mm/hr 0.00 in0.0 mm
12:30 AM 65.7°F18.7°C 57.9°F14.4°C 76% 6.0 mph SSW9.7 kmh SSW 16.0 mph25.7 kmh 30.17 in1021.7 mb 0.00 in0.0 mm 0.00 in/hr0.0 mm/hr 0.00 in0.0 mm
12:15 AM 65.8°F18.8°C 58.4°F14.7°C 77% 6.0 mph SSW9.7 kmh SSW 14.0 mph22.5 kmh 30.17 in1021.7 mb 0.00 in0.0 mm 0.00 in/hr0.0 mm/hr 0.00 in0.0 mm
12:00 AM 65.8°F18.8°C 58.4°F14.7°C 77% 6.0 mph SSW9.7 kmh SSW 11.0 mph17.7 kmh 30.18 in1022.0 mb 0.00 in0.0 mm 0.00 in/hr0.0 mm/hr 0.00 in0.0 mm